Time;durP1;ratioP1;P1;durP2;ratioP2;P2;SDS_P1;SDS_P2;PMS_P1;PMS_P2;Temp;Humidity;BMP_temperature;BMP_pressure;BME280_temperature;BME280_humidity;BME280_pressure;Samples;Min_cycle;Max_cycle;Signal;HPM_P1;HPM_P2
2021/12/13 00:01:30;;;;;;;;;;;;;;;-1.79;100.00;93077.31;5033858;28;19926;-87
2021/12/13 00:04:04;;;;;;;;;;;;;;;-1.85;100.00;93077.03;5033858;28;19935;-87
2021/12/13 00:06:32;;;;;;;;;;;;;;;-1.72;100.00;93077.53;5033801;28;19940;-88
2021/12/13 00:09:03;;;;;;;;;;;;;;;-1.77;100.00;93079.66;5033705;28;19925;-87
2021/12/13 00:11:33;;;;;;;;;;;;;;;-1.67;100.00;93080.41;5033857;28;19932;-87
2021/12/13 00:14:01;;;;;;;;;;;;;;;-1.60;100.00;93088.22;5033678;28;19936;-87
2021/12/13 00:16:29;;;;;;;;;;;;;;;-1.65;100.00;93081.09;5033663;28;19929;-87
2021/12/13 00:18:57;;;;;;;;;;;;;;;-1.64;100.00;93091.94;5033599;28;19978;-87
2021/12/13 00:21:28;;;;;;;;;;;;;;;-1.86;100.00;93090.56;5033761;28;19925;-87
2021/12/13 00:23:58;;;;;;;;;;;;;;;-1.82;100.00;93091.88;5033560;28;19936;-87
2021/12/13 00:26:27;;;;;;;;;;;;;;;-1.73;100.00;93090.28;5033426;28;19990;-87
2021/12/13 00:28:57;;;;;;;;;;;;;;;-1.84;100.00;93088.69;5033287;28;19925;-87
2021/12/13 00:31:27;;;;;;;;;;;;;;;-1.85;100.00;93087.13;5033599;28;19929;-88
2021/12/13 00:33:58;;;;;;;;;;;;;;;-1.70;100.00;93093.31;5033471;28;19925;-87
2021/12/13 00:36:34;;;;;;;;;;;;;;;-1.79;100.00;93091.59;5033390;28;19925;-88
2021/12/13 00:39:08;;;;;;;;;;;;;;;-1.98;100.00;93092.44;5033085;28;19925;-87
2021/12/13 00:41:38;;;;;;;;;;;;;;;-1.95;100.00;93097.22;5033214;28;19925;-88
2021/12/13 00:44:12;;;;;;;;;;;;;;;-1.76;100.00;93091.34;5033094;28;19936;-87
2021/12/13 00:46:40;;;;;;;;;;;;;;;-1.51;100.00;93089.94;5032993;28;19935;-87
2021/12/13 00:49:11;;;;;;;;;;;;;;;-1.46;100.00;93093.72;5032582;28;19925;-87
2021/12/13 00:51:41;;;;;;;;;;;;;;;-1.54;100.00;93092.72;5032993;28;19932;-88
2021/12/13 00:54:14;;;;;;;;;;;;;;;-1.78;100.00;93094.00;5033229;28;19933;-85
2021/12/13 00:56:51;;;;;;;;;;;;;;;-2.02;100.00;93091.94;5032892;28;20388;-87
2021/12/13 00:59:22;;;;;;;;;;;;;;;-2.36;100.00;93085.59;5032781;28;19956;-87
2021/12/13 01:01:54;;;;;;;;;;;;;;;-2.40;100.00;93083.50;5032821;28;19998;-87
2021/12/13 01:04:21;;;;;;;;;;;;;;;-2.33;100.00;93087.06;5032360;28;19968;-88
2021/12/13 01:07:14;;;;;;;;;;;;;;;-2.31;100.00;93087.75;5033130;28;19932;-88
2021/12/13 01:10:14;;;;;;;;;;;;;;;-2.42;100.00;93081.13;5032671;28;20340;-88
2021/12/13 01:12:43;;;;;;;;;;;;;;;-2.56;100.00;93077.28;5027608;28;19929;-88
2021/12/13 01:15:45;;;;;;;;;;;;;;;-2.59;100.00;93073.31;5032447;28;19931;-88
2021/12/13 01:24:51;;;;;;;;;;;;;;;;;;;;;
2021/12/13 01:31:07;;;;;;;;;;;;;;;;;;;;;
2021/12/13 02:39:58;;;;;;;;;;;;;;;-2.57;100.00;93078.22;4792009;29;19979;-90
2021/12/13 02:52:20;;;;;;;;;;;;;;;-2.55;100.00;93077.16;4803076;29;19981;-89
2021/12/13 03:02:02;;;;;;;;;;;;;;;-2.42;100.00;93083.63;4937350;28;19984;-90
2021/12/13 03:07:53;;;;;;;;;;;;;;;-2.42;100.00;93078.59;5022089;28;19971;-90
2021/12/13 03:10:53;;;;;;;;;;;;;;;;;;;;;
2021/12/13 03:19:56;;;;;;;;;;;;;;;-2.60;100.00;93068.44;4987175;28;19929;-89
2021/12/13 03:38:01;;;;;;;;;;;;;;;-2.30;100.00;93084.28;4994884;28;20020;-90
2021/12/13 03:41:04;;;;;;;;;;;;;;;-2.21;100.00;93075.94;5034342;28;20034;-91
2021/12/13 03:44:17;;;;;;;;;;;;;;;-2.22;100.00;93084.41;5034849;28;19939;-90
2021/12/13 04:02:33;;;;;;;;;;;;;;;-2.16;100.00;93100.69;4966550;28;19932;-91
2021/12/13 04:11:27;;;;;;;;;;;;;;;-2.26;100.00;93088.13;5019873;28;19925;-90
2021/12/13 04:20:18;;;;;;;;;;;;;;;-2.42;100.00;93081.91;5012607;28;19972;-90
2021/12/13 04:38:39;;;;;;;;;;;;;;;-2.22;100.00;93101.22;4995769;28;20333;-91
2021/12/13 04:41:51;;;;;;;;;;;;;;;-2.28;100.00;93102.56;5031594;28;19929;-91
2021/12/13 04:50:54;;;;;;;;;;;;;;;-2.30;100.00;93096.88;4991753;28;19929;-91
2021/12/13 04:59:43;;;;;;;;;;;;;;;-2.32;100.00;93096.22;5012361;28;19925;-89
2021/12/13 05:02:19;;;;;;;;;;;;;;;-2.41;100.00;93097.78;5028342;28;20020;-90
2021/12/13 05:05:07;;;;;;;;;;;;;;;-2.50;100.00;93101.91;5031544;28;20074;-90
2021/12/13 05:07:51;;;;;;;;;;;;;;;-2.51;100.00;93099.53;5029696;28;19925;-90
2021/12/13 05:10:25;;;;;;;;;;;;;;;-2.60;100.00;93091.06;5069469;28;20259;-89
2021/12/13 05:13:00;;;;;;;;;;;;;;;-2.69;100.00;93097.66;5072343;28;19924;-90
2021/12/13 05:15:27;;;;;;;;;;;;;;;-2.64;100.00;93095.53;5072487;28;20061;-89
2021/12/13 05:17:58;;;;;;;;;;;;;;;-2.63;100.00;93099.66;5072331;28;19925;-90
2021/12/13 05:20:35;;;;;;;;;;;;;;;-2.67;100.00;93102.56;5071993;28;19924;-88
2021/12/13 05:23:25;;;;;;;;;;;;;;;-2.70;100.00;93104.41;5072357;28;19932;-90
2021/12/13 05:29:11;;;;;;;;;;;;;;;-2.64;100.00;93105.59;5064422;28;19932;-89
2021/12/13 05:34:56;;;;;;;;;;;;;;;-2.63;100.00;93111.44;5072143;28;20023;-90
2021/12/13 05:37:37;;;;;;;;;;;;;;;-2.62;100.00;93113.03;5071976;28;19932;-89
2021/12/13 05:49:57;;;;;;;;;;;;;;;-2.64;100.00;93114.88;4970973;28;19926;-89
2021/12/13 05:52:41;;;;;;;;;;;;;;;-2.59;100.00;93120.31;4968659;28;19937;-89
2021/12/13 05:58:33;;;;;;;;;;;;;;;-2.56;100.00;93125.88;4905906;29;19926;-89
2021/12/13 06:01:11;;;;;;;;;;;;;;;-2.63;100.00;93141.59;5008498;28;20018;-89
2021/12/13 06:03:51;;;;;;;;;;;;;;;-2.68;100.00;93147.03;5009212;28;19925;-87
2021/12/13 06:06:25;;;;;;;;;;;;;;;-2.64;100.00;93147.56;5009467;28;19925;-90
2021/12/13 06:09:01;;;;;;;;;;;;;;;-2.66;100.00;93139.34;5014031;28;19926;-89
2021/12/13 06:11:32;;;;;;;;;;;;;;;-2.61;100.00;93144.78;5071441;28;19928;-89
2021/12/13 06:14:04;;;;;;;;;;;;;;;-2.59;100.00;93141.22;5071388;28;19974;-89
2021/12/13 06:16:35;;;;;;;;;;;;;;;-2.66;100.00;93144.38;5071314;28;19928;-88
2021/12/13 06:19:10;;;;;;;;;;;;;;;-2.73;100.00;93142.38;5071597;28;19935;-87
2021/12/13 06:21:47;;;;;;;;;;;;;;;-2.73;100.00;93141.59;5071404;28;19995;-88
2021/12/13 06:24:15;;;;;;;;;;;;;;;-2.77;100.00;93143.59;5071181;28;19929;-89
2021/12/13 06:26:42;;;;;;;;;;;;;;;-2.76;100.00;93145.16;5071584;28;19968;-86
2021/12/13 06:29:10;;;;;;;;;;;;;;;-2.72;100.00;93154.03;5071021;28;20414;-88
2021/12/13 06:31:41;;;;;;;;;;;;;;;-2.72;100.00;93159.06;5071005;28;20010;-87
2021/12/13 06:34:10;;;;;;;;;;;;;;;-2.74;100.00;93155.88;5071123;28;19924;-86
2021/12/13 06:36:37;;;;;;;;;;;;;;;-2.74;100.00;93163.44;5071246;28;19937;-82
2021/12/13 06:39:18;;;;;;;;;;;;;;;;;;;;;
2021/12/13 06:41:46;;;;;;;;;;;;;;;-2.78;100.00;93171.38;5070765;28;20379;-89
2021/12/13 06:44:21;;;;;;;;;;;;;;;-2.77;100.00;93171.25;5071238;28;20321;-88
2021/12/13 06:46:51;;;;;;;;;;;;;;;-2.79;100.00;93174.81;5070971;28;19928;-87
2021/12/13 06:49:33;;;;;;;;;;;;;;;;;;;;;
2021/12/13 06:52:20;;;;;;;;;;;;;;;-2.77;100.00;93183.00;5070418;28;19931;-87
2021/12/13 06:55:38;;;;;;;;;;;;;;;-2.75;100.00;93178.63;5065758;28;20015;-88
2021/12/13 06:58:27;;;;;;;;;;;;;;;-2.69;100.00;93188.16;5068434;28;19971;-86
2021/12/13 07:01:11;;;;;;;;;;;;;;;-2.64;100.00;93192.84;5070533;28;19935;-86
2021/12/13 07:03:39;;;;;;;;;;;;;;;-2.65;100.00;93194.53;5052219;28;19935;-85
2021/12/13 07:06:06;;;;;;;;;;;;;;;-2.65;100.00;93181.19;5055021;28;20338;-88
2021/12/13 07:08:35;;;;;;;;;;;;;;;-2.65;100.00;93186.22;5054992;28;19924;-88
2021/12/13 07:11:05;;;;;;;;;;;;;;;-2.60;100.00;93186.63;5054986;28;19982;-88
2021/12/13 07:13:33;;;;;;;;;;;;;;;-2.60;100.00;93179.88;5055060;28;19925;-88
2021/12/13 07:16:01;;;;;;;;;;;;;;;-2.64;100.00;93178.53;5054808;28;19924;-88
2021/12/13 07:18:30;;;;;;;;;;;;;;;-2.56;100.00;93178.69;5054619;28;19932;-86
2021/12/13 07:21:04;;;;;;;;;;;;;;;-2.56;100.00;93193.78;5054491;28;19929;-81
2021/12/13 07:23:51;;;;;;;;;;;;;;;-2.54;100.00;93183.59;5054491;28;19925;-88
2021/12/13 07:26:30;;;;;;;;;;;;;;;-2.58;100.00;93187.28;5054535;28;19925;-87
2021/12/13 07:29:00;;;;;;;;;;;;;;;-2.51;100.00;93185.06;5054458;28;19924;-88
2021/12/13 07:31:35;;;;;;;;;;;;;;;-2.55;100.00;93202.09;5054449;28;19929;-88
2021/12/13 07:34:13;;;;;;;;;;;;;;;-2.52;100.00;93201.03;5054277;28;20383;-85
2021/12/13 07:36:43;;;;;;;;;;;;;;;-2.47;100.00;93204.78;5054305;28;19925;-85
2021/12/13 07:39:15;;;;;;;;;;;;;;;-2.45;100.00;93212.97;5054398;28;19960;-86
2021/12/13 07:41:56;;;;;;;;;;;;;;;;;;;;;
2021/12/13 07:44:51;;;;;;;;;;;;;;;-2.33;100.00;93203.59;5053853;28;19925;-88
2021/12/13 07:47:33;;;;;;;;;;;;;;;-2.40;100.00;93215.13;5024465;28;19925;-89
2021/12/13 07:53:27;;;;;;;;;;;;;;;;;;;;;
2021/12/13 08:02:41;;;;;;;;;;;;;;;;;;;;;
2021/12/13 08:05:47;;;;;;;;;;;;;;;;;;;;;
2021/12/13 08:42:28;;;;;;;;;;;;;;;-1.91;100.00;93237.78;4817410;29;19975;-89
2021/12/13 08:51:34;;;;;;;;;;;;;;;;;;;;;
2021/12/13 09:00:33;;;;;;;;;;;;;;;;;;;;;
2021/12/13 09:09:42;;;;;;;;;;;;;;;-1.79;100.00;93240.97;4976206;28;19929;-88
2021/12/13 09:15:43;;;;;;;;;;;;;;;-1.81;100.00;93227.72;5010012;28;20062;-89
2021/12/13 09:27:55;;;;;;;;;;;;;;;;;;;;;
2021/12/13 09:49:39;;;;;;;;;;;;;;;-1.68;100.00;93229.16;4813512;29;19932;-88
2021/12/13 11:55:24;;;;;;;;;;;;;;;;;;;;;
2021/12/13 12:26:36;;;;;;;;;;;;;;;-1.38;100.00;93200.44;4768902;30;19980;-92
2021/12/13 12:53:30;;;;;;;;;;;;;;;-1.54;100.00;93208.59;4810423;29;20050;-83
2021/12/13 13:18:30;;;;;;;;;;;;;;;-1.53;100.00;93222.78;4910648;29;19931;-88
2021/12/13 13:27:53;;;;;;;;;;;;;;;;;;;;;
2021/12/13 13:39:49;;;;;;;;;;;;;;;;;;;;;
2021/12/13 13:42:25;;;;;;;;;;;;;;;-1.63;100.00;93247.16;4806569;29;20852;-90
2021/12/13 13:44:56;;;;;;;;;;;;;;;-1.65;100.00;93254.06;4973628;28;19925;-89
2021/12/13 13:47:28;;;;;;;;;;;;;;;-1.63;100.00;93247.97;5050812;28;19932;-90
2021/12/13 13:49:55;;;;;;;;;;;;;;;-1.63;100.00;93247.16;5073751;28;19930;-90
2021/12/13 13:52:41;;;;;;;;;;;;;;;-1.70;100.00;93248.66;5073774;28;19932;-88
2021/12/13 13:55:21;;;;;;;;;;;;;;;-1.70;100.00;93249.44;5074012;28;19935;-89
2021/12/13 13:57:55;;;;;;;;;;;;;;;-1.65;100.00;93249.03;5071951;28;19932;-89
2021/12/13 14:00:23;;;;;;;;;;;;;;;-1.67;100.00;93253.44;5074445;28;20355;-88
2021/12/13 14:02:51;;;;;;;;;;;;;;;-1.67;100.00;93250.91;5072715;28;20475;-89
2021/12/13 14:05:19;;;;;;;;;;;;;;;-1.66;100.00;93262.56;5074661;28;19924;-89
2021/12/13 14:07:46;;;;;;;;;;;;;;;-1.73;100.00;93254.75;5072535;28;19942;-90
2021/12/13 14:10:24;;;;;;;;;;;;;;;;;;;;;
2021/12/13 14:12:54;;;;;;;;;;;;;;;-1.76;100.00;93260.06;5071524;28;19947;-89
2021/12/13 14:15:27;;;;;;;;;;;;;;;-1.71;100.00;93267.22;5074317;28;20409;-93
2021/12/13 14:17:56;;;;;;;;;;;;;;;-1.73;100.00;93269.84;5072635;28;20383;-89
2021/12/13 14:20:41;;;;;;;;;;;;;;;-1.81;100.00;93268.00;5073736;28;19944;-89
2021/12/13 14:23:24;;;;;;;;;;;;;;;-1.80;100.00;93264.53;5073285;28;19932;-89
2021/12/13 14:25:53;;;;;;;;;;;;;;;-1.85;100.00;93266.66;5073614;28;19936;-87
2021/12/13 14:28:28;;;;;;;;;;;;;;;-1.81;100.00;93272.25;5072358;28;20279;-88
2021/12/13 14:31:00;;;;;;;;;;;;;;;-1.84;100.00;93270.00;5073891;28;19940;-89
2021/12/13 14:33:30;;;;;;;;;;;;;;;-1.83;100.00;93272.38;5071988;28;20011;-91
2021/12/13 14:36:09;;;;;;;;;;;;;;;-1.87;100.00;93278.59;5074189;28;19987;-89
2021/12/13 15:26:27;;;;;;;;;;;;;;;-1.71;100.00;93304.97;4698322;30;20454;-89
2021/12/13 15:28:55;;;;;;;;;;;;;;;-1.69;100.00;93305.63;4772426;29;20319;-89
2021/12/13 15:31:37;;;;;;;;;;;;;;;;;;;;;
2021/12/13 15:34:06;;;;;;;;;;;;;;;-1.64;100.00;93309.38;4864473;29;20582;-90
2021/12/13 15:36:58;;;;;;;;;;;;;;;-1.65;100.00;93314.53;4863678;29;19975;-91
2021/12/13 15:39:26;;;;;;;;;;;;;;;-1.59;100.00;93314.00;4942212;28;19933;-89
2021/12/13 15:42:01;;;;;;;;;;;;;;;-1.64;100.00;93318.63;5016003;28;19924;-91
2021/12/13 15:44:37;;;;;;;;;;;;;;;-1.62;100.00;93312.53;5048196;28;19935;-90
2021/12/13 15:47:04;;;;;;;;;;;;;;;-1.48;100.00;93311.34;5047470;28;20268;-92
2021/12/13 15:49:43;;;;;;;;;;;;;;;-1.45;100.00;93319.56;5048392;28;19936;-89
2021/12/13 15:52:13;;;;;;;;;;;;;;;-1.48;100.00;93323.94;5048495;28;19932;-89
2021/12/13 15:54:44;;;;;;;;;;;;;;;-1.48;100.00;93326.44;5048455;28;19932;-89
2021/12/13 15:57:19;;;;;;;;;;;;;;;-1.62;100.00;93320.09;5048382;28;19941;-89
2021/12/13 15:59:48;;;;;;;;;;;;;;;-1.56;100.00;93315.44;5048105;28;19928;-90
2021/12/13 18:16:47;;;;;;;;;;;;;;;-1.64;100.00;93387.44;4768070;29;19945;-88
2021/12/13 18:19:44;;;;;;;;;;;;;;;;;;;;;
2021/12/13 18:22:59;;;;;;;;;;;;;;;-1.74;100.00;93386.63;4875113;29;19935;-89
2021/12/13 18:31:33;;;;;;;;;;;;;;;-1.75;100.00;93387.56;5002988;28;19960;-88
2021/12/13 18:37:12;;;;;;;;;;;;;;;-1.76;100.00;93381.72;4978085;28;20018;-88
2021/12/13 18:46:11;;;;;;;;;;;;;;;-1.72;100.00;93389.81;5022955;28;20005;-89
2021/12/13 18:48:39;;;;;;;;;;;;;;;-1.75;100.00;93385.81;5029806;28;20284;-89
2021/12/13 18:51:09;;;;;;;;;;;;;;;-1.69;100.00;93388.75;5027691;28;20016;-89
2021/12/13 18:53:43;;;;;;;;;;;;;;;-1.70;100.00;93387.16;5028359;28;19925;-88
2021/12/13 18:56:15;;;;;;;;;;;;;;;-1.69;100.00;93393.78;5024440;28;19955;-89
2021/12/13 18:58:47;;;;;;;;;;;;;;;-1.69;100.00;93396.31;5042044;28;20055;-88
2021/12/13 19:01:25;;;;;;;;;;;;;;;-1.60;100.00;93393.00;5069247;28;19925;-89
2021/12/13 19:03:59;;;;;;;;;;;;;;;-1.56;100.00;93396.06;5069489;28;19972;-88
2021/12/13 19:06:27;;;;;;;;;;;;;;;-1.53;100.00;93394.06;5069939;28;19932;-88
2021/12/13 19:09:04;;;;;;;;;;;;;;;-1.62;100.00;93390.63;5069408;28;19932;-87
2021/12/13 19:11:32;;;;;;;;;;;;;;;-1.73;100.00;93387.44;5069388;28;19940;-90
2021/12/13 19:14:01;;;;;;;;;;;;;;;-1.67;100.00;93382.66;5069142;28;19932;-88
2021/12/13 19:16:35;;;;;;;;;;;;;;;-1.71;100.00;93393.91;5069524;28;20413;-89
2021/12/13 19:19:06;;;;;;;;;;;;;;;-1.78;100.00;93390.31;5069655;28;19932;-88
2021/12/13 19:21:37;;;;;;;;;;;;;;;-1.73;100.00;93384.91;5069408;28;20286;-87
2021/12/13 19:24:14;;;;;;;;;;;;;;;-1.86;100.00;93396.00;5069079;28;19928;-90
2021/12/13 19:26:42;;;;;;;;;;;;;;;-1.88;100.00;93395.34;5068935;28;20325;-90
2021/12/13 19:29:11;;;;;;;;;;;;;;;-1.88;100.00;93391.13;5069315;28;19987;-88
2021/12/13 19:31:44;;;;;;;;;;;;;;;-1.85;100.00;93395.06;5069084;28;19936;-89
2021/12/13 19:34:16;;;;;;;;;;;;;;;-1.87;100.00;93391.91;5069184;28;20011;-89
2021/12/13 19:36:54;;;;;;;;;;;;;;;-1.84;100.00;93399.22;5068784;28;19928;-89
2021/12/13 19:39:28;;;;;;;;;;;;;;;-1.89;100.00;93403.84;5068696;28;19940;-89
2021/12/13 19:42:00;;;;;;;;;;;;;;;-1.84;100.00;93400.91;5068754;28;19932;-90
2021/12/13 19:44:28;;;;;;;;;;;;;;;-1.88;100.00;93398.69;5066799;28;19932;-89
2021/12/13 19:47:17;;;;;;;;;;;;;;;;;;;;;
2021/12/13 19:49:55;;;;;;;;;;;;;;;-1.78;100.00;93403.72;5065718;28;19932;-88
2021/12/13 19:52:25;;;;;;;;;;;;;;;-1.81;100.00;93405.72;5068735;28;20374;-89
2021/12/13 19:54:57;;;;;;;;;;;;;;;-1.72;100.00;93406.66;5068294;28;19932;-92
2021/12/13 19:57:47;;;;;;;;;;;;;;;-1.80;100.00;93410.59;5068202;28;19932;-88
2021/12/13 20:00:17;;;;;;;;;;;;;;;-1.78;100.00;93402.91;5014219;28;19925;-89
2021/12/13 20:02:47;;;;;;;;;;;;;;;-1.76;100.00;93401.88;5068598;28;19928;-89
2021/12/13 20:05:20;;;;;;;;;;;;;;;-1.71;100.00;93413.28;5068526;28;20458;-89
2021/12/13 20:07:50;;;;;;;;;;;;;;;-1.71;100.00;93403.97;5067892;28;20019;-90
2021/12/13 20:29:12;;;;;;;;;;;;;;;-1.83;100.00;93415.91;5017609;28;19992;-90
2021/12/13 20:44:27;;;;;;;;;;;;;;;;;;;;;
2021/12/13 21:04:40;;;;;;;;;;;;;;;-1.72;100.00;93417.50;5012102;28;19926;-89
2021/12/13 21:07:12;;;;;;;;;;;;;;;-1.68;100.00;93416.34;5015171;28;20023;-90
2021/12/13 21:09:41;;;;;;;;;;;;;;;-1.74;100.00;93421.88;5015184;28;20351;-88
2021/12/13 21:12:11;;;;;;;;;;;;;;;-1.69;100.00;93416.44;5017041;28;19933;-91
2021/12/13 21:14:42;;;;;;;;;;;;;;;-1.75;100.00;93418.56;5066959;28;20042;-88
2021/12/13 21:17:11;;;;;;;;;;;;;;;-1.69;100.00;93424.00;5067056;28;19924;-89
2021/12/13 21:19:39;;;;;;;;;;;;;;;-1.71;100.00;93423.34;5066960;28;19933;-88
2021/12/13 21:22:08;;;;;;;;;;;;;;;-1.65;100.00;93420.31;5066618;28;19932;-88
2021/12/13 21:24:36;;;;;;;;;;;;;;;-1.59;100.00;93429.09;5066872;28;21268;-88
2021/12/13 21:27:08;;;;;;;;;;;;;;;-1.62;100.00;93427.63;5066643;28;20306;-88
2021/12/13 21:29:40;;;;;;;;;;;;;;;-1.61;100.00;93426.69;5067107;28;20295;-89
2021/12/13 21:32:11;;;;;;;;;;;;;;;-1.46;100.00;93431.34;5066720;28;19966;-88
2021/12/13 21:34:51;;;;;;;;;;;;;;;-1.54;100.00;93432.81;5066986;28;19932;-87
2021/12/13 21:40:09;;;;;;;;;;;;;;;-1.42;100.00;93423.41;5066298;28;19954;-88
2021/12/13 21:42:39;;;;;;;;;;;;;;;-1.39;100.00;93420.63;5066592;28;19964;-88
2021/12/13 21:45:07;;;;;;;;;;;;;;;-1.46;100.00;93422.06;5066729;28;19928;-89
2021/12/13 21:47:37;;;;;;;;;;;;;;;-1.59;100.00;93416.50;5066661;28;19925;-88
2021/12/13 21:50:06;;;;;;;;;;;;;;;-1.53;100.00;93426.06;5066625;28;19933;-88
2021/12/13 21:52:36;;;;;;;;;;;;;;;-1.50;100.00;93419.03;5066761;28;19928;-88
2021/12/13 21:55:06;;;;;;;;;;;;;;;-1.65;100.00;93421.13;5066057;28;19932;-88
2021/12/13 21:57:35;;;;;;;;;;;;;;;-1.68;100.00;93423.06;5066289;28;19932;-88
2021/12/13 22:00:07;;;;;;;;;;;;;;;-1.69;100.00;93408.91;5066291;28;19964;-88
2021/12/13 22:02:36;;;;;;;;;;;;;;;-1.69;100.00;93416.44;5066017;28;19932;-88
2021/12/13 22:05:06;;;;;;;;;;;;;;;-1.67;100.00;93417.13;5065751;28;19928;-89
2021/12/13 22:07:34;;;;;;;;;;;;;;;-1.62;100.00;93418.31;5065972;28;19939;-88
2021/12/13 22:10:02;;;;;;;;;;;;;;;-1.51;100.00;93416.63;5066085;28;19932;-88
2021/12/13 22:12:30;;;;;;;;;;;;;;;-1.72;100.00;93412.47;5066243;28;19932;-88
2021/12/13 22:14:59;;;;;;;;;;;;;;;-1.71;100.00;93413.28;5065971;28;19925;-88
2021/12/13 22:17:27;;;;;;;;;;;;;;;-1.62;100.00;93410.78;5066182;28;19978;-88
2021/12/13 22:19:58;;;;;;;;;;;;;;;-1.67;100.00;93414.63;5066253;28;19932;-88
2021/12/13 22:22:26;;;;;;;;;;;;;;;-1.78;100.00;93410.47;5066060;28;20311;-88
2021/12/13 22:24:57;;;;;;;;;;;;;;;-1.63;100.00;93410.91;5065925;28;19928;-89
2021/12/13 22:27:27;;;;;;;;;;;;;;;-1.65;100.00;93412.75;5065925;28;19933;-89
2021/12/13 22:29:55;;;;;;;;;;;;;;;-1.58;100.00;93411.31;5065670;28;19932;-88
2021/12/13 22:32:24;;;;;;;;;;;;;;;-1.80;100.00;93415.63;5065833;28;20642;-88
2021/12/13 22:35:00;;;;;;;;;;;;;;;-1.76;100.00;93411.16;5065258;28;19944;-88
2021/12/13 22:37:30;;;;;;;;;;;;;;;-1.73;100.00;93410.88;5065762;28;19932;-88
2021/12/13 22:39:58;;;;;;;;;;;;;;;-1.81;100.00;93406.50;5065667;28;19924;-89
2021/12/13 22:42:26;;;;;;;;;;;;;;;-1.74;100.00;93414.34;5066255;28;19924;-90
2021/12/13 22:44:54;;;;;;;;;;;;;;;-1.72;100.00;93406.66;5065730;28;19951;-90
2021/12/13 22:47:23;;;;;;;;;;;;;;;-1.74;100.00;93409.28;5065783;28;20386;-89
2021/12/13 22:50:06;;;;;;;;;;;;;;;;;;;;;
2021/12/13 22:52:41;;;;;;;;;;;;;;;-1.66;100.00;93406.13;5065017;28;19939;-89
2021/12/13 22:55:10;;;;;;;;;;;;;;;-1.54;100.00;93407.59;5065904;28;20313;-90
2021/12/13 22:57:37;;;;;;;;;;;;;;;-1.50;100.00;93405.63;5065938;28;19936;-89
2021/12/13 23:00:09;;;;;;;;;;;;;;;-1.54;100.00;93402.56;5065670;28;19932;-90
2021/12/13 23:02:36;;;;;;;;;;;;;;;-1.41;100.00;93397.28;5065153;28;19933;-89
2021/12/13 23:05:06;;;;;;;;;;;;;;;-1.67;100.00;93394.47;5065313;28;19928;-89
2021/12/13 23:07:33;;;;;;;;;;;;;;;-1.69;100.00;93399.63;5065403;28;19925;-90
2021/12/13 23:10:17;;;;;;;;;;;;;;;-1.75;100.00;93400.94;5065602;28;19947;-90
2021/12/13 23:15:33;;;;;;;;;;;;;;;-1.86;100.00;93402.78;5065286;28;19939;-89
2021/12/13 23:18:11;;;;;;;;;;;;;;;-1.86;100.00;93400.25;5065540;28;19947;-89
2021/12/13 23:26:31;;;;;;;;;;;;;;;-1.62;100.00;93390.63;5020258;28;19940;-90
2021/12/13 23:32:14;;;;;;;;;;;;;;;-1.53;100.00;93386.53;5053386;28;19932;-89
2021/12/13 23:46:57;;;;;;;;;;;;;;;-1.18;100.00;93393.69;5046957;28;20383;-90
2021/12/13 23:49:25;;;;;;;;;;;;;;;-1.23;100.00;93397.44;5068884;28;19924;-90
2021/12/13 23:51:52;;;;;;;;;;;;;;;-1.42;100.00;93397.41;5069035;28;19932;-88
2021/12/13 23:54:18;;;;;;;;;;;;;;;-1.51;100.00;93392.25;5069083;28;20291;-89
2021/12/13 23:56:45;;;;;;;;;;;;;;;-1.46;100.00;93391.03;5068571;28;20288;-89
2021/12/13 23:59:13;;;;;;;;;;;;;;;-1.52;100.00;93389.84;5068351;28;19932;-89
